Salah Aldeen 2 — 5VEL9 — position and weather

sailwx.info

Track history (hours):
 
Tides and Currents Weather Stations Pressure Air Temp Water Temp Dewpoint Dewpoint Depression Visibility Wind Speed Wind Dir Waves Ship Positions

Salah Aldeen 2

Last reported at 2018-Jul-24 01:49 UTC. Time now 2018-Aug-14 13:45 UTC.
Position N 43°44' E 028°53'.
Warning: this ship's position is 21 days out of date.

Length 86 m; draft 5.1 m.

Type: Cargo ship. MMSI: 671811000.

Date/timePositionNaut miles runAvg speedWind from/ knotsBaromVisibWave heightAir tempDewpointWater temp
2018-Jul-24 01:49N 43°44' E 028°53'3 8.9
2018-Jul-24 01:30N 43°47' E 028°53'4 9.0
2018-Jul-24 01:00N 43°51' E 028°52'5 9.0
2018-Jul-24 00:30N 43°56' E 028°52'4 9.1
2018-Jul-24 00:00N 44°00' E 028°52'5 9.0
2018-Jul-23 23:30N 44°05' E 028°52'4 8.9
2018-Jul-23 23:00N 44°09' E 028°51'4 8.4
2018-Jul-23 22:30N 44°13' E 028°49'4 8.3
2018-Jul-23 22:00N 44°16' E 028°45'4 7.9
2018-Jul-23 21:30N 44°19' E 028°42'1 2.3
2018-Jul-23 21:00N 44°20' E 028°41'0 0.0
2018-Jul-23 20:00N 44°20' E 028°41'0 0.0
2018-Jul-23 19:30N 44°20' E 028°41'0 0.0
2018-Jul-23 19:00N 44°20' E 028°41'0 0.0
2018-Jul-23 18:30N 44°20' E 028°41'0 0.0
2018-Jul-23 18:00N 44°20' E 028°41'0 0.0
2018-Jul-23 17:30N 44°20' E 028°41'0 0.0
2018-Jul-23 17:00N 44°20' E 028°41'0 0.0
2018-Jul-23 16:30N 44°20' E 028°41'0 0.0
2018-Jul-23 16:00N 44°20' E 028°41'0 0.0
2018-Jul-23 15:30N 44°20' E 028°41'0 0.0
2018-Jul-23 15:00N 44°20' E 028°41'0 0.0
2018-Jul-23 14:30N 44°20' E 028°41'0 0.0
2018-Jul-23 13:57N 44°20' E 028°41'0 0.0
2018-Jul-23 13:30N 44°20' E 028°41'0 0.0
2018-Jul-23 13:00N 44°20' E 028°41'0 0.0
2018-Jul-23 12:30N 44°20' E 028°41'0 0.0
2018-Jul-23 12:00N 44°20' E 028°41'0 0.0
2018-Jul-23 11:30N 44°20' E 028°41'0 0.0
2018-Jul-23 11:00N 44°20' E 028°41'0 0.0
2018-Jul-23 10:24N 44°20' E 028°41'0 0.0
2018-Jul-23 10:00N 44°20' E 028°41'0 0.0
2018-Jul-23 09:30N 44°20' E 028°41'0 0.0
2018-Jul-23 09:00N 44°20' E 028°41'0 0.0
2018-Jul-23 08:30N 44°20' E 028°41'0 0.0
2018-Jul-23 07:54N 44°20' E 028°41'0 0.0
2018-Jul-23 07:30N 44°20' E 028°41'0 0.0
2018-Jul-23 07:00N 44°20' E 028°41'0 0.0
2018-Jul-23 06:30N 44°20' E 028°41'0 0.0
2018-Jul-23 06:00N 44°20' E 028°41'0 0.0
2018-Jul-23 05:30N 44°20' E 028°41'0 0.1
2018-Jul-23 05:00N 44°20' E 028°41'0 0.0
2018-Jul-23 04:30N 44°20' E 028°41'0 0.0
2018-Jul-23 04:00N 44°20' E 028°41'0 0.0
2018-Jul-23 03:30N 44°20' E 028°41'0 0.0
2018-Jul-23 03:00N 44°20' E 028°41'0 0.0
2018-Jul-23 02:30N 44°20' E 028°41'0 0.0
2018-Jul-23 02:00N 44°20' E 028°41'0 0.0
2018-Jul-23 01:24N 44°20' E 028°41'0 0.0
2018-Jul-23 01:00N 44°20' E 028°41'0 0.0
2018-Jul-23 00:30N 44°20' E 028°41'0 0.0
2018-Jul-23 00:00N 44°20' E 028°41'0 0.0
2018-Jul-22 23:30N 44°20' E 028°41'0 0.0
2018-Jul-22 23:00N 44°20' E 028°41'0 0.0
2018-Jul-22 22:30N 44°20' E 028°41'0 0.0
2018-Jul-22 22:00N 44°20' E 028°41'0 0.0
2018-Jul-22 21:27N 44°20' E 028°41'0 0.0
2018-Jul-22 21:00N 44°20' E 028°41'0 0.0
2018-Jul-22 20:30N 44°20' E 028°41'0 0.0
2018-Jul-22 19:57N 44°20' E 028°41'0 0.0
2018-Jul-22 19:30N 44°20' E 028°41'0 0.0
2018-Jul-22 18:57N 44°20' E 028°41'0 0.0
2018-Jul-22 18:30N 44°20' E 028°41'0 0.0
2018-Jul-22 18:00N 44°20' E 028°41'0 0.0
2018-Jul-22 17:30N 44°20' E 028°41'0 0.0
2018-Jul-22 17:00N 44°20' E 028°41'0 0.0
2018-Jul-22 16:30N 44°20' E 028°41'0 0.0
2018-Jul-22 15:57N 44°20' E 028°41'0 0.0
2018-Jul-22 15:00N 44°20' E 028°41'0 0.0
2018-Jul-22 14:30N 44°20' E 028°41'0 0.0
2018-Jul-22 13:57N 44°20' E 028°41'0 0.0
2018-Jul-22 13:30N 44°20' E 028°41'0 0.0
2018-Jul-22 13:00N 44°20' E 028°41'0 0.0
2018-Jul-22 12:30N 44°20' E 028°41'0 0.0
2018-Jul-22 12:00N 44°20' E 028°41'0 0.0
2018-Jul-22 11:27N 44°20' E 028°41'0 0.0
2018-Jul-22 11:00N 44°20' E 028°41'0 0.0
2018-Jul-22 10:30N 44°20' E 028°41'0 0.0
2018-Jul-22 10:00N 44°20' E 028°41'0 0.0
2018-Jul-22 09:30N 44°20' E 028°41'0 0.0
2018-Jul-22 09:00N 44°20' E 028°41'0 0.0
2018-Jul-22 08:30N 44°20' E 028°41'0 0.0
2018-Jul-22 08:00N 44°20' E 028°41'0 0.0
2018-Jul-22 07:30N 44°20' E 028°41'0 0.0
2018-Jul-22 07:00N 44°20' E 028°41'0 0.0
2018-Jul-22 06:30N 44°20' E 028°41'0 0.0
2018-Jul-22 06:00N 44°20' E 028°41'0 0.0
2018-Jul-22 05:30N 44°20' E 028°41'0 0.0
2018-Jul-22 04:57N 44°20' E 028°41'0 0.0
2018-Jul-22 04:30N 44°20' E 028°41'0 0.0
2018-Jul-22 04:00N 44°20' E 028°41'0 0.0
2018-Jul-22 03:27N 44°20' E 028°41'0 0.0
2018-Jul-22 03:00N 44°20' E 028°41'0 0.0
2018-Jul-22 02:21N 44°20' E 028°41'0 0.0
2018-Jul-22 02:00N 44°20' E 028°41'0 0.0
2018-Jul-22 01:30N 44°20' E 028°41'0 0.0
2018-Jul-22 01:00N 44°20' E 028°41'0 0.0
2018-Jul-22 00:30N 44°20' E 028°41'0 0.0
2018-Jul-22 00:00N 44°20' E 028°41'0 0.0
2018-Jul-21 23:27N 44°20' E 028°41'0 0.0
2018-Jul-21 23:00N 44°20' E 028°41'0 0.0
2018-Jul-21 22:30N 44°20' E 028°41'0 0.0
2018-Jul-21 22:00N 44°20' E 028°41'0 0.0
2018-Jul-21 21:24N 44°20' E 028°41'0 0.0
2018-Jul-21 20:57N 44°20' E 028°41'0 0.0
2018-Jul-21 20:27N 44°20' E 028°41'0 0.0
2018-Jul-21 20:00N 44°20' E 028°41'0 0.0
2018-Jul-21 19:27N 44°20' E 028°41'0 0.0
2018-Jul-21 19:00N 44°20' E 028°41'0 0.0
2018-Jul-21 18:30N 44°20' E 028°41'0 0.0
2018-Jul-21 18:00N 44°20' E 028°41'0 0.0
2018-Jul-21 17:30N 44°20' E 028°41'0 0.0
2018-Jul-21 17:00N 44°20' E 028°41'0 0.0
2018-Jul-21 16:30N 44°20' E 028°41'0 0.0
2018-Jul-21 15:57N 44°20' E 028°41'0 0.0
2018-Jul-21 15:30N 44°20' E 028°41'0 0.0
2018-Jul-21 14:51N 44°20' E 028°41'0 0.0
2018-Jul-21 14:27N 44°20' E 028°41'0 0.0
2018-Jul-21 14:00N 44°20' E 028°41'0 0.0
2018-Jul-21 13:30N 44°20' E 028°41'0 0.0
2018-Jul-21 13:00N 44°20' E 028°41'0 0.0
2018-Jul-21 12:27N 44°20' E 028°41'0 0.0
2018-Jul-21 12:00N 44°20' E 028°41'0 0.0
2018-Jul-21 11:30N 44°20' E 028°41'0 0.0
2018-Jul-21 11:00N 44°20' E 028°41'0 0.0
2018-Jul-21 10:27N 44°20' E 028°41'0 0.0
2018-Jul-21 10:00N 44°20' E 028°41'0 0.0
2018-Jul-21 09:30N 44°20' E 028°41'0 0.0
2018-Jul-21 08:57N 44°20' E 028°41'0 0.0
2018-Jul-21 08:30N 44°20' E 028°41'0 0.0
2018-Jul-21 07:51N 44°20' E 028°41'0 0.0
2018-Jul-21 07:27N 44°20' E 028°41'0 0.0
2018-Jul-21 06:57N 44°20' E 028°41'0 0.0
2018-Jul-21 06:27N 44°20' E 028°41'0 0.0
2018-Jul-21 06:00N 44°20' E 028°41'0 0.0
2018-Jul-21 05:27N 44°20' E 028°41'0 0.0
2018-Jul-21 05:00N 44°20' E 028°41'0 0.0
2018-Jul-21 04:30N 44°20' E 028°41'0 0.0
2018-Jul-21 04:00N 44°20' E 028°41'0 0.0
2018-Jul-21 03:30N 44°20' E 028°41'0 0.0
2018-Jul-21 03:00N 44°20' E 028°41'0 0.0
2018-Jul-21 02:30N 44°20' E 028°41'0 0.0
2018-Jul-21 01:57N 44°20' E 028°41'0 0.0
2018-Jul-21 01:30N 44°20' E 028°41'0 0.0
2018-Jul-21 01:00N 44°20' E 028°41'0 0.0
2018-Jul-21 00:27N 44°20' E 028°41'0 0.0
2018-Jul-21 00:00N 44°20' E 028°41'0 0.0
2018-Jul-20 23:24N 44°20' E 028°41'0 0.0
2018-Jul-20 22:51N 44°20' E 028°41'0 0.0
2018-Jul-20 22:30N 44°20' E 028°41'0 0.0
2018-Jul-20 22:00N 44°20' E 028°41'0 0.0
2018-Jul-20 21:30N 44°20' E 028°41'0 0.0
2018-Jul-20 21:00N 44°20' E 028°41'0 0.0
2018-Jul-20 20:27N 44°20' E 028°41'0 0.0
2018-Jul-20 20:00N 44°20' E 028°41'0 0.0
2018-Jul-20 19:27N 44°20' E 028°41'0 0.0
2018-Jul-20 18:54N 44°20' E 028°41'0 0.0
2018-Jul-20 18:30N 44°20' E 028°41'0 0.0
2018-Jul-20 18:00N 44°20' E 028°41'2 4.0
2018-Jul-20 17:30N 44°19' E 028°42'2 4.0
2018-Jul-20 17:00N 44°17' E 028°44'1 1.8
2018-Jul-20 16:30N 44°17' E 028°45'0 0.4
2018-Jul-20 16:00N 44°18' E 028°45'0 0.4
2018-Jul-20 15:30N 44°17' E 028°45'1 1.2
2018-Jul-20 15:00N 44°17' E 028°45'3 5.4
2018-Jul-20 14:30N 44°15' E 028°47'4 8.1
2018-Jul-20 14:00N 44°11' E 028°50'3 7.0
2018-Jul-20 13:30N 44°08' E 028°51'4 8.4
2018-Jul-20 13:00N 44°04' E 028°51'4 8.3
2018-Jul-20 12:30N 43°60' E 028°51'4 8.3
2018-Jul-20 12:00N 43°55' E 028°51'4 8.2
2018-Jul-20 11:30N 43°51' E 028°51'4 8.1
2018-Jul-20 11:00N 43°47' E 028°51'4 8.1
2018-Jul-20 10:30N 43°43' E 028°51'4 8.4
2018-Jul-20 10:00N 43°39' E 028°51'  
Track history (hours):
 
Tides and Currents Weather Stations Pressure Air Temp Water Temp Dewpoint Dewpoint Depression Visibility Wind Speed Wind Dir Waves Ship Positions

Salah Aldeen 2

Last reported at 2018-Jul-24 01:49 UTC. Time now 2018-Aug-14 13:45 UTC.
Position N 43°44' E 028°53'.
Warning: this ship's position is 21 days out of date.

Length 86 m; draft 5.1 m.

Type: Cargo ship. MMSI: 671811000.

Date/timePositionNaut miles runAvg speedWind from/ knotsBaromVisibWave heightAir tempDewpointWater temp
2018-Jul-24 01:49N 43°44' E 028°53'3 8.9
2018-Jul-24 01:30N 43°47' E 028°53'4 9.0
2018-Jul-24 01:00N 43°51' E 028°52'5 9.0
2018-Jul-24 00:30N 43°56' E 028°52'4 9.1
2018-Jul-24 00:00N 44°00' E 028°52'5 9.0
2018-Jul-23 23:30N 44°05' E 028°52'4 8.9
2018-Jul-23 23:00N 44°09' E 028°51'4 8.4
2018-Jul-23 22:30N 44°13' E 028°49'4 8.3
2018-Jul-23 22:00N 44°16' E 028°45'4 7.9
2018-Jul-23 21:30N 44°19' E 028°42'1 2.3
2018-Jul-23 21:00N 44°20' E 028°41'0 0.0
2018-Jul-23 20:00N 44°20' E 028°41'0 0.0
2018-Jul-23 19:30N 44°20' E 028°41'0 0.0
2018-Jul-23 19:00N 44°20' E 028°41'0 0.0
2018-Jul-23 18:30N 44°20' E 028°41'0 0.0
2018-Jul-23 18:00N 44°20' E 028°41'0 0.0
2018-Jul-23 17:30N 44°20' E 028°41'0 0.0
2018-Jul-23 17:00N 44°20' E 028°41'0 0.0
2018-Jul-23 16:30N 44°20' E 028°41'0 0.0
2018-Jul-23 16:00N 44°20' E 028°41'0 0.0
2018-Jul-23 15:30N 44°20' E 028°41'0 0.0
2018-Jul-23 15:00N 44°20' E 028°41'0 0.0
2018-Jul-23 14:30N 44°20' E 028°41'0 0.0
2018-Jul-23 13:57N 44°20' E 028°41'0 0.0
2018-Jul-23 13:30N 44°20' E 028°41'0 0.0
2018-Jul-23 13:00N 44°20' E 028°41'0 0.0
2018-Jul-23 12:30N 44°20' E 028°41'0 0.0
2018-Jul-23 12:00N 44°20' E 028°41'0 0.0
2018-Jul-23 11:30N 44°20' E 028°41'0 0.0
2018-Jul-23 11:00N 44°20' E 028°41'0 0.0
2018-Jul-23 10:24N 44°20' E 028°41'0 0.0
2018-Jul-23 10:00N 44°20' E 028°41'0 0.0
2018-Jul-23 09:30N 44°20' E 028°41'0 0.0
2018-Jul-23 09:00N 44°20' E 028°41'0 0.0
2018-Jul-23 08:30N 44°20' E 028°41'0 0.0
2018-Jul-23 07:54N 44°20' E 028°41'0 0.0
2018-Jul-23 07:30N 44°20' E 028°41'0 0.0
2018-Jul-23 07:00N 44°20' E 028°41'0 0.0
2018-Jul-23 06:30N 44°20' E 028°41'0 0.0
2018-Jul-23 06:00N 44°20' E 028°41'0 0.0
2018-Jul-23 05:30N 44°20' E 028°41'0 0.1
2018-Jul-23 05:00N 44°20' E 028°41'0 0.0
2018-Jul-23 04:30N 44°20' E 028°41'0 0.0
2018-Jul-23 04:00N 44°20' E 028°41'0 0.0
2018-Jul-23 03:30N 44°20' E 028°41'0 0.0
2018-Jul-23 03:00N 44°20' E 028°41'0 0.0
2018-Jul-23 02:30N 44°20' E 028°41'0 0.0
2018-Jul-23 02:00N 44°20' E 028°41'0 0.0
2018-Jul-23 01:24N 44°20' E 028°41'0 0.0
2018-Jul-23 01:00N 44°20' E 028°41'0 0.0
2018-Jul-23 00:30N 44°20' E 028°41'0 0.0
2018-Jul-23 00:00N 44°20' E 028°41'0 0.0
2018-Jul-22 23:30N 44°20' E 028°41'0 0.0
2018-Jul-22 23:00N 44°20' E 028°41'0 0.0
2018-Jul-22 22:30N 44°20' E 028°41'0 0.0
2018-Jul-22 22:00N 44°20' E 028°41'0 0.0
2018-Jul-22 21:27N 44°20' E 028°41'0 0.0
2018-Jul-22 21:00N 44°20' E 028°41'0 0.0
2018-Jul-22 20:30N 44°20' E 028°41'0 0.0
2018-Jul-22 19:57N 44°20' E 028°41'0 0.0
2018-Jul-22 19:30N 44°20' E 028°41'0 0.0
2018-Jul-22 18:57N 44°20' E 028°41'0 0.0
2018-Jul-22 18:30N 44°20' E 028°41'0 0.0
2018-Jul-22 18:00N 44°20' E 028°41'0 0.0
2018-Jul-22 17:30N 44°20' E 028°41'0 0.0
2018-Jul-22 17:00N 44°20' E 028°41'0 0.0
2018-Jul-22 16:30N 44°20' E 028°41'0 0.0
2018-Jul-22 15:57N 44°20' E 028°41'0 0.0
2018-Jul-22 15:00N 44°20' E 028°41'0 0.0
2018-Jul-22 14:30N 44°20' E 028°41'0 0.0
2018-Jul-22 13:57N 44°20' E 028°41'0 0.0
2018-Jul-22 13:30N 44°20' E 028°41'0 0.0
2018-Jul-22 13:00N 44°20' E 028°41'0 0.0
2018-Jul-22 12:30N 44°20' E 028°41'0 0.0
2018-Jul-22 12:00N 44°20' E 028°41'0 0.0
2018-Jul-22 11:27N 44°20' E 028°41'0 0.0
2018-Jul-22 11:00N 44°20' E 028°41'0 0.0
2018-Jul-22 10:30N 44°20' E 028°41'0 0.0
2018-Jul-22 10:00N 44°20' E 028°41'0 0.0
2018-Jul-22 09:30N 44°20' E 028°41'0 0.0
2018-Jul-22 09:00N 44°20' E 028°41'0 0.0
2018-Jul-22 08:30N 44°20' E 028°41'0 0.0
2018-Jul-22 08:00N 44°20' E 028°41'0 0.0
2018-Jul-22 07:30N 44°20' E 028°41'0 0.0
2018-Jul-22 07:00N 44°20' E 028°41'0 0.0
2018-Jul-22 06:30N 44°20' E 028°41'0 0.0
2018-Jul-22 06:00N 44°20' E 028°41'0 0.0
2018-Jul-22 05:30N 44°20' E 028°41'0 0.0
2018-Jul-22 04:57N 44°20' E 028°41'0 0.0
2018-Jul-22 04:30N 44°20' E 028°41'0 0.0
2018-Jul-22 04:00N 44°20' E 028°41'0 0.0
2018-Jul-22 03:27N 44°20' E 028°41'0 0.0
2018-Jul-22 03:00N 44°20' E 028°41'0 0.0
2018-Jul-22 02:21N 44°20' E 028°41'0 0.0
2018-Jul-22 02:00N 44°20' E 028°41'0 0.0
2018-Jul-22 01:30N 44°20' E 028°41'0 0.0
2018-Jul-22 01:00N 44°20' E 028°41'0 0.0
2018-Jul-22 00:30N 44°20' E 028°41'0 0.0
2018-Jul-22 00:00N 44°20' E 028°41'0 0.0
2018-Jul-21 23:27N 44°20' E 028°41'0 0.0
2018-Jul-21 23:00N 44°20' E 028°41'0 0.0
2018-Jul-21 22:30N 44°20' E 028°41'0 0.0
2018-Jul-21 22:00N 44°20' E 028°41'0 0.0
2018-Jul-21 21:24N 44°20' E 028°41'0 0.0
2018-Jul-21 20:57N 44°20' E 028°41'0 0.0
2018-Jul-21 20:27N 44°20' E 028°41'0 0.0
2018-Jul-21 20:00N 44°20' E 028°41'0 0.0
2018-Jul-21 19:27N 44°20' E 028°41'0 0.0
2018-Jul-21 19:00N 44°20' E 028°41'0 0.0
2018-Jul-21 18:30N 44°20' E 028°41'0 0.0
2018-Jul-21 18:00N 44°20' E 028°41'0 0.0
2018-Jul-21 17:30N 44°20' E 028°41'0 0.0
2018-Jul-21 17:00N 44°20' E 028°41'0 0.0
2018-Jul-21 16:30N 44°20' E 028°41'0 0.0
2018-Jul-21 15:57N 44°20' E 028°41'0 0.0
2018-Jul-21 15:30N 44°20' E 028°41'0 0.0
2018-Jul-21 14:51N 44°20' E 028°41'0 0.0
2018-Jul-21 14:27N 44°20' E 028°41'0 0.0
2018-Jul-21 14:00N 44°20' E 028°41'0 0.0
2018-Jul-21 13:30N 44°20' E 028°41'0 0.0
2018-Jul-21 13:00N 44°20' E 028°41'0 0.0
2018-Jul-21 12:27N 44°20' E 028°41'0 0.0
2018-Jul-21 12:00N 44°20' E 028°41'0 0.0
2018-Jul-21 11:30N 44°20' E 028°41'0 0.0
2018-Jul-21 11:00N 44°20' E 028°41'0 0.0
2018-Jul-21 10:27N 44°20' E 028°41'0 0.0
2018-Jul-21 10:00N 44°20' E 028°41'0 0.0
2018-Jul-21 09:30N 44°20' E 028°41'0 0.0
2018-Jul-21 08:57N 44°20' E 028°41'0 0.0
2018-Jul-21 08:30N 44°20' E 028°41'0 0.0
2018-Jul-21 07:51N 44°20' E 028°41'0 0.0
2018-Jul-21 07:27N 44°20' E 028°41'0 0.0
2018-Jul-21 06:57N 44°20' E 028°41'0 0.0
2018-Jul-21 06:27N 44°20' E 028°41'0 0.0
2018-Jul-21 06:00N 44°20' E 028°41'0 0.0
2018-Jul-21 05:27N 44°20' E 028°41'0 0.0
2018-Jul-21 05:00N 44°20' E 028°41'0 0.0
2018-Jul-21 04:30N 44°20' E 028°41'0 0.0
2018-Jul-21 04:00N 44°20' E 028°41'0 0.0
2018-Jul-21 03:30N 44°20' E 028°41'0 0.0
2018-Jul-21 03:00N 44°20' E 028°41'0 0.0
2018-Jul-21 02:30N 44°20' E 028°41'0 0.0
2018-Jul-21 01:57N 44°20' E 028°41'0 0.0
2018-Jul-21 01:30N 44°20' E 028°41'0 0.0
2018-Jul-21 01:00N 44°20' E 028°41'0 0.0
2018-Jul-21 00:27N 44°20' E 028°41'0 0.0
2018-Jul-21 00:00N 44°20' E 028°41'0 0.0
2018-Jul-20 23:24N 44°20' E 028°41'0 0.0
2018-Jul-20 22:51N 44°20' E 028°41'0 0.0
2018-Jul-20 22:30N 44°20' E 028°41'0 0.0
2018-Jul-20 22:00N 44°20' E 028°41'0 0.0
2018-Jul-20 21:30N 44°20' E 028°41'0 0.0
2018-Jul-20 21:00N 44°20' E 028°41'0 0.0
2018-Jul-20 20:27N 44°20' E 028°41'0 0.0
2018-Jul-20 20:00N 44°20' E 028°41'0 0.0
2018-Jul-20 19:27N 44°20' E 028°41'0 0.0
2018-Jul-20 18:54N 44°20' E 028°41'0 0.0
2018-Jul-20 18:30N 44°20' E 028°41'0 0.0
2018-Jul-20 18:00N 44°20' E 028°41'2 4.0
2018-Jul-20 17:30N 44°19' E 028°42'2 4.0
2018-Jul-20 17:00N 44°17' E 028°44'1 1.8
2018-Jul-20 16:30N 44°17' E 028°45'0 0.4
2018-Jul-20 16:00N 44°18' E 028°45'0 0.4
2018-Jul-20 15:30N 44°17' E 028°45'1 1.2
2018-Jul-20 15:00N 44°17' E 028°45'3 5.4
2018-Jul-20 14:30N 44°15' E 028°47'4 8.1
2018-Jul-20 14:00N 44°11' E 028°50'3 7.0
2018-Jul-20 13:30N 44°08' E 028°51'4 8.4
2018-Jul-20 13:00N 44°04' E 028°51'4 8.3
2018-Jul-20 12:30N 43°60' E 028°51'4 8.3
2018-Jul-20 12:00N 43°55' E 028°51'4 8.2
2018-Jul-20 11:30N 43°51' E 028°51'4 8.1
2018-Jul-20 11:00N 43°47' E 028°51'4 8.1
2018-Jul-20 10:30N 43°43' E 028°51'4 8.4
2018-Jul-20 10:00N 43°39' E 028°51'  

Dump ship's entire track history